Time;durP1;ratioP1;P1;durP2;ratioP2;P2;SDS_P1;SDS_P2;PMS_P1;PMS_P2;Temp;Humidity;BMP_temperature;BMP_pressure;BME280_temperature;BME280_humidity;BME280_pressure;Samples;Min_cycle;Max_cycle;Signal;HPM_P1;HPM_P2
2021/07/06 00:02:19;;;;;;;6.93;4.63;;;15.50;99.90;;;;;;5008158;28;20527;-73
2021/07/06 00:04:47;;;;;;;6.38;4.80;;;15.50;99.90;;;;;;5008194;28;20022;-73
2021/07/06 00:07:15;;;;;;;9.82;5.07;;;15.50;99.90;;;;;;5008144;28;20101;-73
2021/07/06 00:09:40;;;;;;;8.48;5.30;;;15.50;99.90;;;;;;5007976;28;20026;-74
2021/07/06 00:12:06;;;;;;;9.68;5.50;;;15.50;99.90;;;;;;5009137;28;20055;-74
2021/07/06 00:14:32;;;;;;;7.85;4.93;;;15.50;99.90;;;;;;5011986;28;20033;-73
2021/07/06 00:16:58;;;;;;;9.10;4.70;;;15.30;99.90;;;;;;5011659;28;20033;-73
2021/07/06 00:19:23;;;;;;;7.20;4.93;;;15.30;99.90;;;;;;5010982;28;20026;-73
2021/07/06 00:21:49;;;;;;;9.80;5.45;;;15.40;99.90;;;;;;5011528;28;20026;-73
2021/07/06 00:24:15;;;;;;;9.88;5.45;;;15.30;99.90;;;;;;5011594;28;20091;-73
2021/07/06 00:26:40;;;;;;;8.07;4.75;;;15.20;99.90;;;;;;5011290;28;20053;-73
2021/07/06 00:29:06;;;;;;;6.13;4.70;;;15.20;99.90;;;;;;5011442;28;20022;-73
2021/07/06 00:31:32;;;;;;;11.77;5.25;;;15.20;99.90;;;;;;5010945;28;20109;-74
2021/07/06 00:33:57;;;;;;;4.65;4.22;;;15.20;99.90;;;;;;5011464;28;20033;-74
2021/07/06 00:36:23;;;;;;;7.65;4.50;;;15.10;99.90;;;;;;4993803;28;20033;-73
2021/07/06 00:38:49;;;;;;;7.30;4.90;;;15.10;99.90;;;;;;5011150;28;20034;-73
2021/07/06 00:41:15;;;;;;;15.65;8.07;;;15.00;99.90;;;;;;5010283;28;20044;-73
2021/07/06 00:43:40;;;;;;;4.88;4.10;;;15.00;99.90;;;;;;5011035;28;20022;-72
2021/07/06 00:46:07;;;;;;;7.20;4.22;;;15.00;99.90;;;;;;5010913;28;20022;-72
2021/07/06 00:48:32;;;;;;;6.50;4.45;;;15.00;99.90;;;;;;4993483;28;20033;-73
2021/07/06 00:50:58;;;;;;;9.68;5.18;;;15.10;99.90;;;;;;5010405;28;20030;-73
2021/07/06 00:53:25;;;;;;;9.05;4.68;;;15.10;99.90;;;;;;5010970;28;20025;-72
2021/07/06 00:55:53;;;;;;;6.88;4.18;;;15.00;99.90;;;;;;5010581;28;20030;-73
2021/07/06 00:58:20;;;;;;;7.22;4.80;;;15.00;99.90;;;;;;5010981;28;20026;-73
2021/07/06 01:00:46;;;;;;;6.80;4.72;;;15.00;99.90;;;;;;5010056;28;20026;-73
2021/07/06 01:03:12;;;;;;;8.10;5.25;;;14.90;99.90;;;;;;5010711;28;20402;-73
2021/07/06 01:05:38;;;;;;;6.25;5.32;;;15.00;99.90;;;;;;5010834;28;20018;-73
2021/07/06 01:08:06;;;;;;;9.02;5.88;;;15.00;99.90;;;;;;5010625;28;20037;-73
2021/07/06 01:10:32;;;;;;;8.30;4.60;;;15.00;99.90;;;;;;5009851;28;20061;-73
2021/07/06 01:12:58;;;;;;;6.53;4.97;;;14.90;99.90;;;;;;5010686;28;20022;-74
2021/07/06 01:15:26;;;;;;;6.00;5.38;;;14.90;99.90;;;;;;5010557;28;20041;-73
2021/07/06 01:18:04;;;;;;;9.88;4.88;;;14.90;99.90;;;;;;5010745;28;20026;-73
2021/07/06 01:20:31;;;;;;;11.05;5.05;;;14.90;99.90;;;;;;5009601;28;20110;-73
2021/07/06 01:22:58;;;;;;;5.63;4.65;;;14.90;99.90;;;;;;5010404;28;20029;-73
2021/07/06 01:25:24;;;;;;;6.53;4.70;;;14.90;99.90;;;;;;5010233;28;20026;-72
2021/07/06 01:27:49;;;;;;;8.25;5.60;;;14.90;99.90;;;;;;5010498;28;20022;-73
2021/07/06 01:30:17;;;;;;;4.93;4.45;;;14.90;99.90;;;;;;5009714;28;20040;-73
2021/07/06 01:32:48;;;;;;;6.93;5.28;;;14.90;99.90;;;;;;5010370;28;20399;-73
2021/07/06 01:35:16;;;;;;;6.80;5.18;;;14.90;99.90;;;;;;5010526;28;20474;-72
2021/07/06 01:37:50;;;;;;;18.25;5.13;;;14.90;99.90;;;;;;5010516;28;20034;-72
2021/07/06 01:40:18;;;;;;;11.95;5.72;;;14.90;99.90;;;;;;5009076;28;20034;-72
2021/07/06 01:42:45;;;;;;;8.43;4.55;;;14.80;99.90;;;;;;5010287;28;20030;-72
2021/07/06 01:45:14;;;;;;;11.48;5.35;;;14.80;99.90;;;;;;5010155;28;20440;-74
2021/07/06 01:47:51;;;;;;;10.38;4.90;;;14.80;99.90;;;;;;5010151;28;20037;-74
2021/07/06 01:50:23;;;;;;;8.70;5.50;;;14.70;99.90;;;;;;5009457;28;20037;-74
2021/07/06 01:52:54;;;;;;;6.10;4.97;;;14.70;99.90;;;;;;5009916;28;20022;-73
2021/07/06 01:55:26;;;;;;;9.98;5.30;;;14.70;99.90;;;;;;5009917;28;20034;-74
2021/07/06 01:57:53;;;;;;;13.23;5.68;;;14.70;99.90;;;;;;5009972;28;20025;-74
2021/07/06 02:00:21;;;;;;;11.48;5.18;;;14.70;99.90;;;;;;5009130;28;20036;-74
2021/07/06 02:02:49;;;;;;;8.45;4.95;;;14.80;99.90;;;;;;5010062;28;20024;-74
2021/07/06 02:05:15;;;;;;;8.02;5.22;;;14.70;99.90;;;;;;5009913;28;20462;-74
2021/07/06 02:07:41;;;;;;;6.28;5.30;;;14.70;99.90;;;;;;5009888;28;20022;-74
2021/07/06 02:10:08;;;;;;;7.75;5.40;;;14.70;99.90;;;;;;4991240;28;20030;-73
2021/07/06 02:12:34;;;;;;;11.75;5.70;;;14.60;99.90;;;;;;5008361;28;20090;-74
2021/07/06 02:15:00;;;;;;;8.02;5.43;;;14.70;99.90;;;;;;5009671;28;20030;-74
2021/07/06 02:17:27;;;;;;;7.60;5.80;;;14.60;99.90;;;;;;5009825;28;20434;-74
2021/07/06 02:19:53;;;;;;;8.73;5.63;;;14.60;99.90;;;;;;5008983;28;20029;-74
2021/07/06 02:22:18;;;;;;;9.52;5.68;;;14.60;99.90;;;;;;5009867;28;20113;-73
2021/07/06 02:24:45;;;;;;;10.70;5.65;;;14.60;99.90;;;;;;5021476;28;20102;-75
2021/07/06 02:27:10;;;;;;;6.90;5.30;;;14.60;99.90;;;;;;5024587;28;20042;-74
2021/07/06 02:29:36;;;;;;;5.43;4.93;;;14.60;99.90;;;;;;5008738;28;20032;-74
2021/07/06 02:32:02;;;;;;;9.20;5.18;;;14.40;99.90;;;;;;5009269;28;20022;-74
2021/07/06 02:34:28;;;;;;;7.72;4.80;;;14.50;99.90;;;;;;5008887;28;20098;-74
2021/07/06 02:36:53;;;;;;;9.25;5.20;;;14.50;99.90;;;;;;5009050;28;20185;-75
2021/07/06 02:39:19;;;;;;;7.25;5.18;;;14.50;99.90;;;;;;4993139;28;20029;-75
2021/07/06 02:41:45;;;;;;;6.78;4.90;;;14.50;99.90;;;;;;5010508;28;20103;-74
2021/07/06 02:44:10;;;;;;;13.30;6.00;;;14.40;99.90;;;;;;5009454;28;20101;-75
2021/07/06 02:46:36;;;;;;;7.63;5.63;;;14.40;99.90;;;;;;4991735;28;20499;-74
2021/07/06 02:49:02;;;;;;;7.53;5.45;;;14.40;99.90;;;;;;4991387;28;20022;-75
2021/07/06 02:51:27;;;;;;;7.97;5.80;;;14.40;99.90;;;;;;4990971;28;20048;-74
2021/07/06 02:53:53;;;;;;;10.45;5.35;;;14.40;99.90;;;;;;5009234;28;20063;-74
2021/07/06 02:56:19;;;;;;;10.05;5.55;;;14.40;99.90;;;;;;5008559;28;20033;-74
2021/07/06 02:58:45;;;;;;;6.80;5.93;;;14.30;99.90;;;;;;5008953;28;20466;-74
2021/07/06 03:01:10;;;;;;;6.82;4.22;;;14.30;99.90;;;;;;5008235;28;20052;-74
2021/07/06 03:03:36;;;;;;;5.43;4.47;;;14.10;99.90;;;;;;5009054;28;20476;-74
2021/07/06 03:06:02;;;;;;;7.18;5.40;;;14.00;99.90;;;;;;4991820;28;20471;-75
2021/07/06 03:08:30;;;;;;;6.57;5.57;;;14.10;99.90;;;;;;5008983;28;20037;-75
2021/07/06 03:10:56;;;;;;;8.02;4.95;;;14.10;99.90;;;;;;5007729;28;20523;-74
2021/07/06 03:13:22;;;;;;;9.82;5.00;;;14.10;99.90;;;;;;5009028;28;20041;-74
2021/07/06 03:15:47;;;;;;;8.13;5.93;;;14.20;99.90;;;;;;5008864;28;20034;-74
2021/07/06 03:18:13;;;;;;;12.27;5.88;;;14.10;99.90;;;;;;5008783;28;20030;-73
2021/07/06 03:20:39;;;;;;;12.43;5.97;;;14.10;99.90;;;;;;5008027;28;20582;-74
2021/07/06 03:23:05;;;;;;;6.35;5.30;;;14.00;99.90;;;;;;5008545;28;20087;-74
2021/07/06 03:25:33;;;;;;;10.50;5.85;;;14.00;99.90;;;;;;5008017;28;20029;-74
2021/07/06 03:28:00;;;;;;;13.70;6.25;;;14.00;99.90;;;;;;5008929;28;20022;-74
2021/07/06 03:30:34;;;;;;;12.52;6.63;;;14.10;99.90;;;;;;5007713;28;20053;-74
2021/07/06 03:33:02;;;;;;;6.70;5.32;;;14.10;99.90;;;;;;5008817;28;20394;-74
2021/07/06 03:35:28;;;;;;;8.95;5.75;;;14.00;99.90;;;;;;5008823;28;20026;-73
2021/07/06 03:37:55;;;;;;;7.07;5.60;;;14.00;99.90;;;;;;4991032;28;20104;-73
2021/07/06 03:40:21;;;;;;;9.45;5.47;;;14.00;99.90;;;;;;5007382;28;20030;-74
2021/07/06 03:42:51;;;;;;;10.70;6.07;;;14.00;99.90;;;;;;5011352;22;20038;-72
2021/07/06 03:45:18;;;;;;;13.32;5.88;;;14.00;99.90;;;;;;4983264;28;20061;-74
2021/07/06 03:47:44;;;;;;;5.85;5.15;;;14.00;99.90;;;;;;4990886;28;20029;-74
2021/07/06 03:50:17;;;;;;;14.38;5.00;;;14.00;99.90;;;;;;4991566;28;20026;-73
2021/07/06 03:52:43;;;;;;;6.35;4.75;;;14.00;99.90;;;;;;5007768;28;20038;-73
2021/07/06 03:55:09;;;;;;;12.73;4.95;;;14.00;99.90;;;;;;5067397;28;20816;-74
2021/07/06 03:57:36;;;;;;;5.80;4.55;;;14.00;99.90;;;;;;4986408;28;20038;-74
2021/07/06 04:00:07;;;;;;;10.00;4.68;;;14.00;99.90;;;;;;4991086;28;20031;-75
2021/07/06 04:02:32;;;;;;;6.90;4.65;;;14.10;99.90;;;;;;5059522;28;20023;-73
2021/07/06 04:04:58;;;;;;;10.02;5.20;;;14.10;99.90;;;;;;5001603;28;20138;-73
2021/07/06 04:07:24;;;;;;;11.05;5.13;;;14.10;99.90;;;;;;5011132;28;20018;-73
2021/07/06 04:09:49;;;;;;;4.78;4.38;;;14.10;99.90;;;;;;5011459;28;20510;-74
2021/07/06 04:12:15;;;;;;;8.95;4.05;;;14.10;99.90;;;;;;5011994;28;20479;-74
2021/07/06 04:14:41;;;;;;;8.50;4.60;;;14.20;99.90;;;;;;4995981;28;20099;-74
2021/07/06 04:17:07;;;;;;;6.72;5.10;;;14.20;99.90;;;;;;4992510;28;20368;-74
2021/07/06 04:19:33;;;;;;;7.07;4.70;;;14.20;99.90;;;;;;4991701;28;20018;-74
2021/07/06 04:21:58;;;;;;;9.68;6.18;;;14.30;99.90;;;;;;4992308;28;20464;-73
2021/07/06 04:24:24;;;;;;;8.93;5.88;;;14.40;99.90;;;;;;4976482;28;20027;-74
2021/07/06 04:26:50;;;;;;;11.63;5.75;;;14.40;99.90;;;;;;4972895;28;20027;-74
2021/07/06 04:29:15;;;;;;;8.15;5.43;;;14.40;99.90;;;;;;4972865;28;20027;-73
2021/07/06 04:31:41;;;;;;;7.05;5.47;;;14.40;99.90;;;;;;5007943;28;20038;-73
2021/07/06 04:34:07;;;;;;;7.75;5.80;;;14.40;99.90;;;;;;4994657;28;20188;-73
2021/07/06 04:36:32;;;;;;;8.15;5.05;;;14.40;99.90;;;;;;4991755;28;20038;-74
2021/07/06 04:38:58;;;;;;;10.25;5.72;;;14.50;99.90;;;;;;4991851;28;20476;-73
2021/07/06 04:41:24;;;;;;;6.80;6.10;;;14.50;99.90;;;;;;4990832;28;20033;-73
2021/07/06 04:43:50;;;;;;;11.25;6.40;;;14.60;99.90;;;;;;4995107;28;20034;-72
2021/07/06 04:46:15;;;;;;;9.98;6.05;;;14.60;99.90;;;;;;5010721;28;20045;-73
2021/07/06 04:48:41;;;;;;;6.93;5.82;;;14.70;99.90;;;;;;5010666;28;20025;-72
2021/07/06 04:51:09;;;;;;;9.75;6.30;;;14.70;99.90;;;;;;4996921;28;20113;-71
2021/07/06 04:53:37;;;;;;;10.52;5.75;;;14.90;99.90;;;;;;4991456;28;20022;-72
2021/07/06 04:56:03;;;;;;;8.48;5.75;;;14.90;99.90;;;;;;4991532;28;20030;-72
2021/07/06 04:58:29;;;;;;;8.95;5.57;;;15.00;99.90;;;;;;4990272;28;20095;-71
2021/07/06 05:00:56;;;;;;;7.53;5.72;;;15.00;99.90;;;;;;4990354;28;20030;-73
2021/07/06 05:03:22;;;;;;;10.40;5.82;;;15.30;99.90;;;;;;4989891;28;20552;-73
2021/07/06 05:05:48;;;;;;;8.07;5.70;;;15.20;99.90;;;;;;4991153;28;20029;-72
2021/07/06 05:08:14;;;;;;;6.85;4.55;;;15.30;99.90;;;;;;4990797;28;20029;-72
2021/07/06 05:10:39;;;;;;;11.35;4.20;;;15.40;99.90;;;;;;4990640;28;20030;-72
2021/07/06 05:13:05;;;;;;;5.50;3.60;;;15.50;99.90;;;;;;4991809;28;20027;-72
2021/07/06 05:15:31;;;;;;;10.48;3.78;;;15.50;99.90;;;;;;5008627;28;20037;-73
2021/07/06 05:17:57;;;;;;;5.03;3.55;;;15.60;99.90;;;;;;5010365;28;20391;-73
2021/07/06 05:20:22;;;;;;;7.55;3.45;;;15.60;99.90;;;;;;5010628;28;20034;-72
2021/07/06 05:22:48;;;;;;;4.50;3.50;;;15.60;99.90;;;;;;4981869;28;20026;-72
2021/07/06 05:25:15;;;;;;;6.85;3.85;;;15.60;99.90;;;;;;4991067;28;20080;-72
2021/07/06 05:27:41;;;;;;;7.38;3.80;;;15.60;99.90;;;;;;4991278;28;20034;-73
2021/07/06 05:30:08;;;;;;;6.45;3.80;;;15.70;99.90;;;;;;4990480;28;20037;-73
2021/07/06 05:32:37;;;;;;;4.68;3.38;;;15.60;99.90;;;;;;4990906;28;20026;-73
2021/07/06 05:35:04;;;;;;;9.95;3.95;;;15.70;99.90;;;;;;4990792;28;20090;-72
2021/07/06 05:37:30;;;;;;;8.60;4.10;;;15.80;99.90;;;;;;4990859;28;20554;-73
2021/07/06 05:39:55;;;;;;;7.68;3.97;;;16.00;99.90;;;;;;4990151;28;20037;-73
2021/07/06 05:42:21;;;;;;;9.82;3.80;;;16.00;99.90;;;;;;5029511;28;20047;-72
2021/07/06 05:44:47;;;;;;;7.78;3.72;;;16.10;99.90;;;;;;5066820;28;20119;-73
2021/07/06 05:47:14;;;;;;;6.72;3.75;;;16.20;99.90;;;;;;5091714;28;20081;-73
2021/07/06 05:49:39;;;;;;;4.32;3.33;;;15.90;99.90;;;;;;5090579;28;20028;-74
2021/07/06 05:52:05;;;;;;;4.15;3.75;;;15.80;99.90;;;;;;5072610;28;20094;-72
2021/07/06 05:54:31;;;;;;;5.78;3.65;;;15.70;99.90;;;;;;5066340;28;20418;-72
2021/07/06 05:56:57;;;;;;;6.00;3.53;;;15.70;99.90;;;;;;5072127;28;20532;-73
2021/07/06 05:59:22;;;;;;;5.28;4.05;;;15.90;99.90;;;;;;5072283;28;20029;-73
2021/07/06 06:01:48;;;;;;;8.35;3.92;;;16.00;99.90;;;;;;5071869;28;20409;-73
2021/07/06 06:04:15;;;;;;;8.15;3.42;;;16.00;99.90;;;;;;5073283;28;20417;-73
2021/07/06 06:06:41;;;;;;;5.97;3.45;;;16.10;99.90;;;;;;5072414;28;20016;-73
2021/07/06 06:09:07;;;;;;;5.63;3.65;;;16.20;99.90;;;;;;5076160;28;20043;-73
2021/07/06 06:11:32;;;;;;;7.53;2.88;;;16.40;99.90;;;;;;5091522;28;20520;-73
2021/07/06 06:13:58;;;;;;;4.10;3.10;;;16.50;99.90;;;;;;5055414;28;20039;-72
2021/07/06 06:16:23;;;;;;;8.50;3.50;;;16.50;99.90;;;;;;5072132;28;20080;-72
2021/07/06 06:18:54;;;;;;;4.50;3.00;;;16.60;99.90;;;;;;5072267;28;20069;-72
2021/07/06 06:21:21;;;;;;;6.88;3.47;;;16.70;99.90;;;;;;5079039;28;20031;-72
2021/07/06 06:23:47;;;;;;;6.72;3.15;;;16.90;99.90;;;;;;5072980;28;20021;-73
2021/07/06 06:26:12;;;;;;;13.60;3.25;;;17.00;99.90;;;;;;5073174;28;20139;-73
2021/07/06 06:28:40;;;;;;;10.27;2.92;;;17.20;99.90;;;;;;5072274;28;20024;-73
2021/07/06 06:31:06;;;;;;;6.13;2.85;;;17.20;99.90;;;;;;5071761;28;20363;-73
2021/07/06 06:33:32;;;;;;;6.00;2.78;;;17.30;99.90;;;;;;5072075;28;20035;-71
2021/07/06 06:35:57;;;;;;;4.90;2.88;;;17.60;99.90;;;;;;5072029;28;20024;-72
2021/07/06 06:38:23;;;;;;;4.45;2.58;;;17.80;99.90;;;;;;5072732;28;20025;-72
2021/07/06 06:40:49;;;;;;;3.47;2.33;;;18.00;99.90;;;;;;5090656;28;20032;-72
2021/07/06 06:43:14;;;;;;;6.50;2.70;;;18.30;99.90;;;;;;5093004;28;20028;-74
2021/07/06 06:45:40;;;;;;;4.55;2.17;;;18.50;99.90;;;;;;5092713;28;20073;-72
2021/07/06 06:48:06;;;;;;;10.93;2.47;;;18.60;99.90;;;;;;5092925;28;20048;-74
2021/07/06 06:50:31;;;;;;;5.78;2.33;;;18.70;99.90;;;;;;5074099;28;20078;-74
2021/07/06 06:52:57;;;;;;;10.38;2.75;;;18.60;99.90;;;;;;5071847;28;20028;-73
2021/07/06 06:55:23;;;;;;;6.13;2.25;;;18.70;99.90;;;;;;5072191;28;20051;-73
2021/07/06 06:57:48;;;;;;;6.72;2.50;;;18.70;99.90;;;;;;5072293;28;20078;-72
2021/07/06 07:00:14;;;;;;;6.03;2.30;;;18.80;99.90;;;;;;5072181;28;20497;-73
2021/07/06 07:02:41;;;;;;;5.60;2.03;;;19.00;99.90;;;;;;5072047;28;20020;-75
2021/07/06 07:05:07;;;;;;;3.42;1.90;;;19.40;99.90;;;;;;5072171;28;20071;-73
2021/07/06 07:07:34;;;;;;;5.28;2.03;;;19.70;99.90;;;;;;5071919;28;20103;-73
2021/07/06 07:10:00;;;;;;;3.20;1.58;;;20.00;99.90;;;;;;5065460;28;20042;-74
2021/07/06 07:12:26;;;;;;;6.68;1.90;;;20.10;99.90;;;;;;5073651;28;20020;-73
2021/07/06 07:14:51;;;;;;;5.03;1.77;;;20.20;99.90;;;;;;5091772;28;20046;-73
2021/07/06 07:17:17;;;;;;;4.00;1.40;;;20.30;99.90;;;;;;5091873;28;20056;-75
2021/07/06 07:19:43;;;;;;;8.32;1.65;;;20.40;99.90;;;;;;5091703;28;20069;-73
2021/07/06 07:22:09;;;;;;;3.67;1.65;;;20.50;99.90;;;;;;5073489;28;20032;-74
2021/07/06 07:24:35;;;;;;;6.10;2.10;;;20.50;99.90;;;;;;5073630;28;20151;-74
2021/07/06 07:27:01;;;;;;;9.05;1.80;;;20.60;99.90;;;;;;5090155;28;20021;-73
2021/07/06 07:29:27;;;;;;;6.60;1.80;;;20.60;99.90;;;;;;5073057;28;20030;-74
2021/07/06 07:31:53;;;;;;;5.00;1.35;;;20.60;99.90;;;;;;5091674;28;20090;-73
2021/07/06 07:34:19;;;;;;;3.55;2.03;;;20.70;99.90;;;;;;5090533;28;20016;-74
2021/07/06 07:36:46;;;;;;;5.57;1.83;;;20.70;99.90;;;;;;5091578;28;20020;-74
2021/07/06 07:39:12;;;;;;;2.63;1.45;;;20.90;99.90;;;;;;5091375;28;20020;-73
2021/07/06 07:41:38;;;;;;;9.05;1.90;;;21.40;99.90;;;;;;5091597;28;20035;-74
2021/07/06 07:44:04;;;;;;;7.60;1.55;;;21.80;99.90;;;;;;5102060;28;20024;-74
2021/07/06 07:46:30;;;;;;;3.33;1.50;;;21.70;99.90;;;;;;5102362;28;20021;-73
2021/07/06 07:48:56;;;;;;;2.78;1.40;;;21.90;99.90;;;;;;5087983;28;20021;-73
2021/07/06 07:51:22;;;;;;;1.88;1.30;;;22.30;99.90;;;;;;5070959;28;20033;-73
2021/07/06 07:53:48;;;;;;;4.55;1.23;;;22.50;99.90;;;;;;5071074;28;20078;-74
2021/07/06 07:56:14;;;;;;;1.60;1.27;;;22.60;99.90;;;;;;5070853;28;20029;-75
2021/07/06 07:58:40;;;;;;;3.47;1.40;;;23.00;99.90;;;;;;5070100;28;20029;-74
2021/07/06 08:01:06;;;;;;;2.00;1.17;;;23.10;99.90;;;;;;5070508;28;20116;-74
2021/07/06 08:03:32;;;;;;;3.55;1.35;;;23.20;99.90;;;;;;5071167;28;20028;-74
2021/07/06 08:05:58;;;;;;;3.08;1.27;;;22.90;99.90;;;;;;5071092;28;20063;-74
2021/07/06 08:08:24;;;;;;;3.85;1.40;;;23.00;99.90;;;;;;5071140;28;20429;-73
2021/07/06 08:10:53;;;;;;;4.43;1.80;;;22.70;99.90;;;;;;5081744;28;20029;-73
2021/07/06 08:13:23;;;;;;;6.13;1.52;;;23.10;99.90;;;;;;5075273;28;20127;-74
2021/07/06 08:15:50;;;;;;;4.07;1.30;;;23.00;99.90;;;;;;5051407;28;20078;-74
2021/07/06 08:18:16;;;;;;;4.47;1.35;;;22.90;99.90;;;;;;5048974;28;20036;-73
2021/07/06 08:20:42;;;;;;;2.38;1.40;;;22.90;99.90;;;;;;5050230;28;20168;-73
2021/07/06 08:23:08;;;;;;;2.50;1.20;;;22.80;99.90;;;;;;5050636;28;20096;-74
2021/07/06 08:25:33;;;;;;;4.85;1.52;;;22.90;99.90;;;;;;5032855;28;20112;-72
2021/07/06 08:27:59;;;;;;;2.90;1.55;;;23.00;99.90;;;;;;5051029;28;20017;-70
2021/07/06 08:30:25;;;;;;;2.80;1.25;;;23.50;99.90;;;;;;5049810;28;20163;-72
2021/07/06 08:32:50;;;;;;;1.30;1.20;;;23.90;99.90;;;;;;5050691;28;20092;-71
2021/07/06 08:35:16;;;;;;;1.42;1.13;;;24.20;99.90;;;;;;5054803;28;20761;-74
2021/07/06 08:37:42;;;;;;;2.58;1.40;;;23.90;99.90;;;;;;5054592;28;20529;-74
2021/07/06 08:40:09;;;;;;;3.55;1.40;;;23.80;99.90;;;;;;5040005;28;20024;-73
2021/07/06 08:42:37;;;;;;;5.55;1.77;;;24.60;99.90;;;;;;5074317;28;20074;-73
2021/07/06 08:45:03;;;;;;;2.15;1.70;;;25.10;99.90;;;;;;5074075;28;20107;-74
2021/07/06 08:47:30;;;;;;;2.50;1.58;;;25.20;99.90;;;;;;5074413;28;20032;-75
2021/07/06 08:49:56;;;;;;;2.78;1.50;;;25.50;99.90;;;;;;5073519;28;20490;-74
2021/07/06 08:52:23;;;;;;;4.78;1.65;;;26.10;99.90;;;;;;5074119;28;20382;-75
2021/07/06 08:54:49;;;;;;;3.72;1.55;;;26.70;99.90;;;;;;5074440;28;20063;-74
2021/07/06 08:57:21;;;;;;;3.42;1.50;;;26.70;99.90;;;;;;5056641;28;20028;-73
2021/07/06 08:59:47;;;;;;;3.58;2.05;;;26.20;99.90;;;;;;5073235;28;20035;-74
2021/07/06 09:02:13;;;;;;;3.17;1.80;;;26.40;99.90;;;;;;5073819;28;20376;-73
2021/07/06 09:04:51;;;;;;;7.65;2.22;;;26.90;99.90;;;;;;5056205;28;20047;-74
2021/07/06 09:07:19;;;;;;;8.15;2.22;;;27.30;99.90;;;;;;5073971;28;20028;-74
2021/07/06 09:09:45;;;;;;;5.57;2.30;;;27.20;99.90;;;;;;5074087;28;20073;-74
2021/07/06 09:12:12;;;;;;;6.50;1.60;;;27.10;99.90;;;;;;5075349;28;20028;-74
2021/07/06 09:14:49;;;;;;;2.65;1.50;;;27.50;99.90;;;;;;5093828;28;20020;-74
2021/07/06 09:17:26;;;;;;;3.28;1.13;;;26.40;99.90;;;;;;5094032;28;20107;-74
2021/07/06 09:19:54;;;;;;;2.22;1.70;;;26.30;99.90;;;;;;5093125;28;20028;-73
2021/07/06 09:22:26;;;;;;;7.43;1.65;;;26.30;99.90;;;;;;5093845;28;20024;-74
2021/07/06 09:25:00;;;;;;;3.50;1.55;;;26.30;99.90;;;;;;5092909;28;20382;-73
2021/07/06 09:27:29;;;;;;;2.92;1.70;;;26.80;99.90;;;;;;5093570;28;20032;-73
2021/07/06 09:30:07;;;;;;;4.63;1.70;;;27.30;99.90;;;;;;5092805;28;20020;-73
2021/07/06 09:32:34;;;;;;;1.15;1.00;;;27.10;99.90;;;;;;5075556;28;20032;-73
2021/07/06 09:35:09;;;;;;;3.20;1.23;;;27.10;99.90;;;;;;5093616;28;20036;-73
2021/07/06 09:37:48;;;;;;;5.90;1.60;;;27.50;99.90;;;;;;5093582;28;20081;-74
2021/07/06 09:40:31;;;;;;;4.78;1.67;;;27.30;99.90;;;;;;5092586;28;20024;-70
2021/07/06 09:43:15;;;;;;;1.50;1.40;;;27.50;99.90;;;;;;5052842;28;20499;-75
2021/07/06 09:45:42;;;;;;;6.13;1.90;;;27.30;99.90;;;;;;5062065;28;20036;-71
2021/07/06 09:48:10;;;;;;;1.73;1.27;;;27.10;99.90;;;;;;5072583;28;20031;-71
2021/07/06 09:50:36;;;;;;;3.08;1.38;;;27.30;99.90;;;;;;5063780;22;20159;-70
2021/07/06 09:53:02;;;;;;;5.13;1.63;;;27.10;99.90;;;;;;5001315;28;20115;-71
2021/07/06 09:55:32;;;;;;;4.32;1.50;;;27.20;99.90;;;;;;5009534;28;20034;-71
2021/07/06 09:58:02;;;;;;;4.45;1.50;;;27.50;99.90;;;;;;5009967;28;20106;-73
2021/07/06 10:00:31;;;;;;;2.55;1.17;;;27.30;99.90;;;;;;5008151;28;20040;-72
2021/07/06 10:03:01;;;;;;;2.22;1.20;;;27.10;99.90;;;;;;5011546;28;20018;-74
2021/07/06 10:05:28;;;;;;;3.85;1.23;;;27.10;99.90;;;;;;4974611;28;20019;-72
2021/07/06 10:07:55;;;;;;;2.75;1.35;;;27.20;99.90;;;;;;4970635;28;20055;-72
2021/07/06 10:10:21;;;;;;;1.45;1.08;;;27.20;99.90;;;;;;4970115;28;20023;-71
2021/07/06 10:12:48;;;;;;;2.28;1.27;;;28.00;99.90;;;;;;4971501;28;20031;-72
2021/07/06 10:15:20;;;;;;;3.50;1.40;;;27.80;99.90;;;;;;4971156;28;20049;-72
2021/07/06 10:17:48;;;;;;;1.58;1.20;;;27.50;99.90;;;;;;4970718;28;20053;-73
2021/07/06 10:20:20;;;;;;;1.60;1.30;;;27.40;99.90;;;;;;4970518;28;20439;-72
2021/07/06 10:22:46;;;;;;;3.00;1.30;;;27.20;99.90;;;;;;4971217;28;20030;-73
2021/07/06 10:25:12;;;;;;;1.38;1.27;;;27.00;99.90;;;;;;4972778;28;20761;-73
2021/07/06 10:27:43;;;;;;;3.03;1.70;;;27.20;99.90;;;;;;4971765;28;20045;-74
2021/07/06 10:30:19;;;;;;;3.87;1.57;;;27.00;99.90;;;;;;4971273;28;20110;-74
2021/07/06 10:32:48;;;;;;;5.35;1.75;;;27.10;99.90;;;;;;4971585;28;20269;-74
2021/07/06 10:35:15;;;;;;;1.45;1.30;;;26.90;99.90;;;;;;4988441;28;20160;-74
2021/07/06 10:37:41;;;;;;;1.27;1.17;;;26.50;99.90;;;;;;4992508;28;20575;-74
2021/07/06 10:40:21;;;;;;;1.30;1.20;;;26.10;99.90;;;;;;4991451;28;20091;-75
2021/07/06 10:42:50;;;;;;;4.15;1.40;;;26.00;99.90;;;;;;5005668;28;20022;-75
2021/07/06 10:45:15;;;;;;;4.28;1.20;;;25.90;99.90;;;;;;5094504;28;20027;-74
2021/07/06 10:47:46;;;;;;;2.03;1.38;;;26.00;99.90;;;;;;5094625;28;20452;-74
2021/07/06 10:50:30;;;;;;;1.33;1.23;;;25.90;99.90;;;;;;5094252;28;20150;-75
2021/07/06 10:53:17;;;;;;;1.95;1.38;;;25.90;99.90;;;;;;5094055;28;20119;-75
2021/07/06 10:55:44;;;;;;;1.90;1.08;;;25.70;99.90;;;;;;5074692;28;20024;-73
2021/07/06 10:58:10;;;;;;;1.60;1.10;;;25.70;99.90;;;;;;5094213;28;20028;-73
2021/07/06 11:00:44;;;;;;;1.40;1.30;;;25.70;99.90;;;;;;5092920;28;20103;-75
2021/07/06 11:03:18;;;;;;;1.42;1.20;;;26.00;99.90;;;;;;5091593;28;20028;-75
2021/07/06 11:05:44;;;;;;;1.10;1.00;;;25.80;99.90;;;;;;4969537;28;20027;-74
2021/07/06 11:08:41;;;;;;;0.80;0.80;;;25.80;99.90;;;;;;4969741;28;20027;-74
2021/07/06 11:11:08;;;;;;;0.80;0.80;;;25.90;99.90;;;;;;4952008;28;20031;-74
2021/07/06 11:13:34;;;;;;;2.10;1.20;;;26.10;99.90;;;;;;4969657;28;20058;-73
2021/07/06 11:16:01;;;;;;;0.73;0.73;;;25.60;99.90;;;;;;4969594;28;20415;-73
2021/07/06 11:18:35;;;;;;;1.00;1.00;;;25.60;99.90;;;;;;4970049;28;20022;-73
2021/07/06 11:21:02;;;;;;;1.50;0.90;;;25.60;99.90;;;;;;4969485;28;20019;-74
2021/07/06 11:23:36;;;;;;;2.08;0.70;;;25.30;99.90;;;;;;4969425;28;20508;-74
2021/07/06 11:26:07;;;;;;;1.80;0.93;;;24.90;99.90;;;;;;4983862;28;20031;-73
2021/07/06 11:28:49;;;;;;;3.72;0.93;;;24.80;99.90;;;;;;5020384;28;20105;-74
2021/07/06 11:31:20;;;;;;;3.60;0.95;;;24.50;99.90;;;;;;5071718;28;20032;-73
2021/07/06 11:33:46;;;;;;;2.30;0.93;;;24.60;99.90;;;;;;5071663;28;20536;-73
2021/07/06 11:36:25;;;;;;;1.10;1.00;;;24.70;99.90;;;;;;5071134;28;20020;-72
2021/07/06 11:38:55;;;;;;;2.08;1.05;;;24.60;99.90;;;;;;5071102;28;20487;-72
2021/07/06 11:41:22;;;;;;;4.63;0.93;;;24.20;99.90;;;;;;5069590;28;20073;-73
2021/07/06 11:43:49;;;;;;;7.00;2.10;;;24.00;99.90;;;;;;5052834;28;20040;-71
2021/07/06 11:46:17;;;;;;;4.47;3.10;;;23.70;99.90;;;;;;4980611;28;20357;-72
2021/07/06 11:48:44;;;;;;;8.52;5.75;;;23.80;99.90;;;;;;4992906;28;20079;-72
2021/07/06 11:51:15;;;;;;;9.85;4.45;;;23.80;99.90;;;;;;5021160;28;20503;-73
2021/07/06 11:53:44;;;;;;;4.45;2.63;;;23.90;99.90;;;;;;5090849;28;20032;-73
2021/07/06 11:56:13;;;;;;;3.45;2.00;;;24.00;99.90;;;;;;5090931;28;20032;-71
2021/07/06 11:58:39;;;;;;;4.75;0.95;;;24.20;99.90;;;;;;5091260;28;20582;-73
2021/07/06 12:01:11;;;;;;;3.70;0.77;;;24.70;99.90;;;;;;5090361;28;20057;-71
2021/07/06 12:03:37;;;;;;;;;;;24.60;99.90;;;;;;5047421;28;20023;-70
2021/07/06 12:06:07;;;;;;;3.75;0.70;;;24.80;99.90;;;;;;4989001;28;19912;-71
2021/07/06 12:08:35;;;;;;;1.98;0.70;;;24.80;99.90;;;;;;4972631;28;20023;-72
2021/07/06 12:11:09;;;;;;;1.27;0.60;;;24.50;99.90;;;;;;4991474;28;20647;-71
2021/07/06 12:13:59;;;;;;;1.00;0.60;;;24.70;99.90;;;;;;4992285;28;20034;-70
2021/07/06 12:16:39;;;;;;;0.73;0.50;;;24.80;99.90;;;;;;4991787;28;20044;-72
2021/07/06 12:19:06;;;;;;;0.60;0.60;;;24.60;99.90;;;;;;4991334;28;20485;-71
2021/07/06 12:21:34;;;;;;;1.13;0.73;;;24.50;99.90;;;;;;4991040;28;20053;-71
2021/07/06 12:24:10;;;;;;;1.55;0.60;;;24.60;99.90;;;;;;4990910;28;20024;-72
2021/07/06 12:26:37;;;;;;;0.70;0.70;;;24.70;99.90;;;;;;4991860;28;20038;-71
2021/07/06 12:29:04;;;;;;;1.90;0.70;;;24.70;99.90;;;;;;4991496;28;20649;-71
2021/07/06 12:31:37;;;;;;;2.72;1.13;;;24.60;99.90;;;;;;4991372;28;20079;-70
2021/07/06 12:34:16;;;;;;;1.08;0.60;;;24.30;99.90;;;;;;4990632;28;20034;-70
2021/07/06 12:36:53;;;;;;;2.05;1.02;;;24.50;99.90;;;;;;4991739;28;20105;-70
2021/07/06 12:39:29;;;;;;;1.33;1.00;;;24.50;99.90;;;;;;4983951;28;20058;-71
2021/07/06 12:42:05;;;;;;;2.97;1.65;;;24.20;99.90;;;;;;5093820;28;20123;-70
2021/07/06 12:44:39;;;;;;;1.73;1.33;;;23.80;99.90;;;;;;5046714;28;20022;-72
2021/07/06 12:47:19;;;;;;;1.90;1.60;;;23.70;99.90;;;;;;4991370;28;20050;-69
2021/07/06 12:49:46;;;;;;;1.67;1.30;;;24.00;99.90;;;;;;4990058;28;20392;-71